sensor_id;sensor_type;location;lat;lon;timestamp;temperature;humidity
15483;DHT22;7843;50.330;7.312;2023-07-24T00:01:23;17.50;99.90
15483;DHT22;7843;50.330;7.312;2023-07-24T00:03:50;17.50;99.90
15483;DHT22;7843;50.330;7.312;2023-07-24T00:06:17;17.60;99.90
15483;DHT22;7843;50.330;7.312;2023-07-24T00:08:44;17.60;99.90
15483;DHT22;7843;50.330;7.312;2023-07-24T00:11:10;17.50;99.90
15483;DHT22;7843;50.330;7.312;2023-07-24T00:13:37;17.60;99.90
15483;DHT22;7843;50.330;7.312;2023-07-24T00:16:08;17.60;99.90
15483;DHT22;7843;50.330;7.312;2023-07-24T00:18:35;17.60;99.90
15483;DHT22;7843;50.330;7.312;2023-07-24T00:21:01;17.70;99.90
15483;DHT22;7843;50.330;7.312;2023-07-24T00:23:28;17.70;99.90
15483;DHT22;7843;50.330;7.312;2023-07-24T00:25:55;17.70;99.90
15483;DHT22;7843;50.330;7.312;2023-07-24T00:28:22;17.70;99.90
15483;DHT22;7843;50.330;7.312;2023-07-24T00:30:48;17.70;99.90
15483;DHT22;7843;50.330;7.312;2023-07-24T00:33:15;17.80;99.90
15483;DHT22;7843;50.330;7.312;2023-07-24T00:35:42;17.80;99.90
15483;DHT22;7843;50.330;7.312;2023-07-24T00:38:08;17.80;99.90
15483;DHT22;7843;50.330;7.312;2023-07-24T00:40:35;17.90;99.90
15483;DHT22;7843;50.330;7.312;2023-07-24T00:43:02;17.90;99.90
15483;DHT22;7843;50.330;7.312;2023-07-24T00:45:29;17.90;99.90
15483;DHT22;7843;50.330;7.312;2023-07-24T00:47:55;17.90;99.90
15483;DHT22;7843;50.330;7.312;2023-07-24T00:50:23;18.00;99.90
15483;DHT22;7843;50.330;7.312;2023-07-24T00:52:50;18.00;99.90
15483;DHT22;7843;50.330;7.312;2023-07-24T00:55:17;18.00;99.90
15483;DHT22;7843;50.330;7.312;2023-07-24T00:57:44;18.00;99.90
15483;DHT22;7843;50.330;7.312;2023-07-24T01:00:11;18.00;99.90
15483;DHT22;7843;50.330;7.312;2023-07-24T01:02:38;18.00;99.90
15483;DHT22;7843;50.330;7.312;2023-07-24T01:05:06;18.00;99.90
15483;DHT22;7843;50.330;7.312;2023-07-24T01:07:34;18.00;99.90
15483;DHT22;7843;50.330;7.312;2023-07-24T01:10:01;18.00;99.90
15483;DHT22;7843;50.330;7.312;2023-07-24T01:12:49;18.00;99.90
15483;DHT22;7843;50.330;7.312;2023-07-24T01:18:00;18.00;99.90
15483;DHT22;7843;50.330;7.312;2023-07-24T01:20:30;18.00;99.90
15483;DHT22;7843;50.330;7.312;2023-07-24T01:25:35;18.00;99.90
15483;DHT22;7843;50.330;7.312;2023-07-24T01:28:08;18.00;99.90
15483;DHT22;7843;50.330;7.312;2023-07-24T01:30:34;18.00;99.90
15483;DHT22;7843;50.330;7.312;2023-07-24T01:33:01;18.00;99.90
15483;DHT22;7843;50.330;7.312;2023-07-24T01:35:30;18.00;99.90
15483;DHT22;7843;50.330;7.312;2023-07-24T01:37:57;18.00;99.90
15483;DHT22;7843;50.330;7.312;2023-07-24T01:40:24;18.00;99.90
15483;DHT22;7843;50.330;7.312;2023-07-24T01:42:51;17.90;99.90
15483;DHT22;7843;50.330;7.312;2023-07-24T01:45:18;17.90;99.90
15483;DHT22;7843;50.330;7.312;2023-07-24T01:47:45;17.90;99.90
15483;DHT22;7843;50.330;7.312;2023-07-24T01:50:12;17.90;99.90
15483;DHT22;7843;50.330;7.312;2023-07-24T01:52:39;17.80;99.90
15483;DHT22;7843;50.330;7.312;2023-07-24T01:55:06;17.80;99.90
15483;DHT22;7843;50.330;7.312;2023-07-24T01:57:33;17.80;99.90
15483;DHT22;7843;50.330;7.312;2023-07-24T01:59:59;17.80;99.90
15483;DHT22;7843;50.330;7.312;2023-07-24T02:02:26;17.80;99.90
15483;DHT22;7843;50.330;7.312;2023-07-24T02:04:53;17.90;99.90
15483;DHT22;7843;50.330;7.312;2023-07-24T02:07:19;17.80;99.90
15483;DHT22;7843;50.330;7.312;2023-07-24T02:09:46;17.80;99.90
15483;DHT22;7843;50.330;7.312;2023-07-24T02:12:13;17.80;99.90
15483;DHT22;7843;50.330;7.312;2023-07-24T02:14:39;17.90;99.90
15483;DHT22;7843;50.330;7.312;2023-07-24T02:17:06;17.90;99.90
15483;DHT22;7843;50.330;7.312;2023-07-24T02:19:33;17.90;99.90
15483;DHT22;7843;50.330;7.312;2023-07-24T02:21:59;17.90;99.90
15483;DHT22;7843;50.330;7.312;2023-07-24T02:24:26;18.00;99.90
15483;DHT22;7843;50.330;7.312;2023-07-24T02:26:53;18.00;99.90
15483;DHT22;7843;50.330;7.312;2023-07-24T02:29:20;18.00;99.90
15483;DHT22;7843;50.330;7.312;2023-07-24T02:31:46;18.00;99.90
15483;DHT22;7843;50.330;7.312;2023-07-24T02:34:13;18.10;99.90
15483;DHT22;7843;50.330;7.312;2023-07-24T02:36:40;18.10;99.90
15483;DHT22;7843;50.330;7.312;2023-07-24T02:39:08;18.10;99.90
15483;DHT22;7843;50.330;7.312;2023-07-24T02:41:34;18.00;99.90
15483;DHT22;7843;50.330;7.312;2023-07-24T02:44:02;18.00;99.90
15483;DHT22;7843;50.330;7.312;2023-07-24T02:46:30;18.00;99.90
15483;DHT22;7843;50.330;7.312;2023-07-24T02:48:57;17.90;99.90
15483;DHT22;7843;50.330;7.312;2023-07-24T02:51:24;17.90;99.90
15483;DHT22;7843;50.330;7.312;2023-07-24T02:53:52;17.90;99.90
15483;DHT22;7843;50.330;7.312;2023-07-24T02:56:19;17.80;99.90
15483;DHT22;7843;50.330;7.312;2023-07-24T02:58:47;17.80;99.90
15483;DHT22;7843;50.330;7.312;2023-07-24T03:01:13;17.80;99.90
15483;DHT22;7843;50.330;7.312;2023-07-24T03:03:41;17.80;99.90
15483;DHT22;7843;50.330;7.312;2023-07-24T03:06:08;17.70;99.90
15483;DHT22;7843;50.330;7.312;2023-07-24T03:08:35;17.70;99.90
15483;DHT22;7843;50.330;7.312;2023-07-24T03:11:05;17.60;99.90
15483;DHT22;7843;50.330;7.312;2023-07-24T03:13:32;17.60;99.90
15483;DHT22;7843;50.330;7.312;2023-07-24T03:15:58;17.60;99.90
15483;DHT22;7843;50.330;7.312;2023-07-24T03:18:25;17.50;99.90
15483;DHT22;7843;50.330;7.312;2023-07-24T03:20:52;17.40;99.90
15483;DHT22;7843;50.330;7.312;2023-07-24T03:23:19;17.30;99.90
15483;DHT22;7843;50.330;7.312;2023-07-24T03:25:46;17.30;99.90
15483;DHT22;7843;50.330;7.312;2023-07-24T03:28:13;17.20;99.90
15483;DHT22;7843;50.330;7.312;2023-07-24T03:30:40;17.20;99.90
15483;DHT22;7843;50.330;7.312;2023-07-24T03:33:06;17.10;99.90
15483;DHT22;7843;50.330;7.312;2023-07-24T03:35:34;17.00;99.90
15483;DHT22;7843;50.330;7.312;2023-07-24T03:38:01;17.00;99.90
15483;DHT22;7843;50.330;7.312;2023-07-24T03:40:27;16.90;99.90
15483;DHT22;7843;50.330;7.312;2023-07-24T03:42:54;16.90;99.90
15483;DHT22;7843;50.330;7.312;2023-07-24T03:45:21;16.80;99.90
15483;DHT22;7843;50.330;7.312;2023-07-24T03:47:47;16.70;99.90
15483;DHT22;7843;50.330;7.312;2023-07-24T03:50:14;16.70;99.90
15483;DHT22;7843;50.330;7.312;2023-07-24T03:52:41;16.70;99.90
15483;DHT22;7843;50.330;7.312;2023-07-24T03:55:08;16.70;99.90
15483;DHT22;7843;50.330;7.312;2023-07-24T03:57:35;16.80;99.90
15483;DHT22;7843;50.330;7.312;2023-07-24T04:00:03;16.80;99.90
15483;DHT22;7843;50.330;7.312;2023-07-24T04:02:29;16.80;99.90
15483;DHT22;7843;50.330;7.312;2023-07-24T04:04:56;16.80;99.90
15483;DHT22;7843;50.330;7.312;2023-07-24T04:07:23;16.80;99.90
15483;DHT22;7843;50.330;7.312;2023-07-24T04:09:50;16.80;99.90
15483;DHT22;7843;50.330;7.312;2023-07-24T04:12:16;16.80;99.90
15483;DHT22;7843;50.330;7.312;2023-07-24T04:14:43;16.90;99.90
15483;DHT22;7843;50.330;7.312;2023-07-24T04:17:10;16.90;99.90
15483;DHT22;7843;50.330;7.312;2023-07-24T04:19:36;16.90;99.90
15483;DHT22;7843;50.330;7.312;2023-07-24T04:22:03;17.00;99.90
15483;DHT22;7843;50.330;7.312;2023-07-24T04:24:30;17.00;99.90
15483;DHT22;7843;50.330;7.312;2023-07-24T04:26:57;17.00;99.90
15483;DHT22;7843;50.330;7.312;2023-07-24T04:29:23;17.00;99.90
15483;DHT22;7843;50.330;7.312;2023-07-24T04:31:52;17.00;99.90
15483;DHT22;7843;50.330;7.312;2023-07-24T04:34:19;16.90;99.90
15483;DHT22;7843;50.330;7.312;2023-07-24T04:36:46;16.90;99.90
15483;DHT22;7843;50.330;7.312;2023-07-24T04:39:12;16.90;99.90
15483;DHT22;7843;50.330;7.312;2023-07-24T04:41:39;16.90;99.90
15483;DHT22;7843;50.330;7.312;2023-07-24T04:44:06;16.90;99.90
15483;DHT22;7843;50.330;7.312;2023-07-24T04:46:32;16.90;99.90
15483;DHT22;7843;50.330;7.312;2023-07-24T04:48:59;16.90;99.90
15483;DHT22;7843;50.330;7.312;2023-07-24T04:51:26;16.90;99.90
15483;DHT22;7843;50.330;7.312;2023-07-24T04:53:53;17.00;99.90
15483;DHT22;7843;50.330;7.312;2023-07-24T04:56:20;17.10;99.90
15483;DHT22;7843;50.330;7.312;2023-07-24T04:58:47;17.10;99.90
15483;DHT22;7843;50.330;7.312;2023-07-24T05:01:14;17.10;99.90
15483;DHT22;7843;50.330;7.312;2023-07-24T05:03:40;17.10;99.90
15483;DHT22;7843;50.330;7.312;2023-07-24T05:06:07;17.20;99.90
15483;DHT22;7843;50.330;7.312;2023-07-24T05:08:34;17.20;99.90
15483;DHT22;7843;50.330;7.312;2023-07-24T05:11:00;17.30;99.90
15483;DHT22;7843;50.330;7.312;2023-07-24T05:13:27;17.40;99.90
15483;DHT22;7843;50.330;7.312;2023-07-24T05:15:54;17.40;99.90
15483;DHT22;7843;50.330;7.312;2023-07-24T05:18:21;17.50;99.90
15483;DHT22;7843;50.330;7.312;2023-07-24T05:20:48;17.50;99.90
15483;DHT22;7843;50.330;7.312;2023-07-24T05:23:17;17.60;99.90
15483;DHT22;7843;50.330;7.312;2023-07-24T05:25:44;17.60;99.90
15483;DHT22;7843;50.330;7.312;2023-07-24T05:28:11;17.60;99.90
15483;DHT22;7843;50.330;7.312;2023-07-24T05:30:38;17.60;99.90
15483;DHT22;7843;50.330;7.312;2023-07-24T05:33:04;17.60;99.90
15483;DHT22;7843;50.330;7.312;2023-07-24T05:35:31;17.70;99.90
15483;DHT22;7843;50.330;7.312;2023-07-24T05:37:58;17.80;99.90
15483;DHT22;7843;50.330;7.312;2023-07-24T05:40:25;17.80;99.90
15483;DHT22;7843;50.330;7.312;2023-07-24T05:42:51;17.80;99.90
15483;DHT22;7843;50.330;7.312;2023-07-24T05:45:18;17.90;99.90
15483;DHT22;7843;50.330;7.312;2023-07-24T05:47:45;18.00;99.90
15483;DHT22;7843;50.330;7.312;2023-07-24T05:50:11;18.00;99.90
15483;DHT22;7843;50.330;7.312;2023-07-24T05:52:40;18.10;99.90
15483;DHT22;7843;50.330;7.312;2023-07-24T05:55:07;18.10;99.90
15483;DHT22;7843;50.330;7.312;2023-07-24T05:57:34;18.20;99.90
15483;DHT22;7843;50.330;7.312;2023-07-24T06:00:05;18.20;99.90
15483;DHT22;7843;50.330;7.312;2023-07-24T06:02:32;18.20;99.90
15483;DHT22;7843;50.330;7.312;2023-07-24T06:04:59;18.20;99.90
15483;DHT22;7843;50.330;7.312;2023-07-24T06:07:26;18.20;99.90
15483;DHT22;7843;50.330;7.312;2023-07-24T06:09:52;18.20;99.90
15483;DHT22;7843;50.330;7.312;2023-07-24T06:12:19;18.30;99.90
15483;DHT22;7843;50.330;7.312;2023-07-24T06:14:46;18.40;99.90
15483;DHT22;7843;50.330;7.312;2023-07-24T06:17:13;18.30;99.90
15483;DHT22;7843;50.330;7.312;2023-07-24T06:19:39;18.40;99.90
15483;DHT22;7843;50.330;7.312;2023-07-24T06:22:07;18.40;99.90
15483;DHT22;7843;50.330;7.312;2023-07-24T06:24:33;18.40;99.90
15483;DHT22;7843;50.330;7.312;2023-07-24T06:27:00;18.40;99.90
15483;DHT22;7843;50.330;7.312;2023-07-24T06:29:27;18.50;99.90
15483;DHT22;7843;50.330;7.312;2023-07-24T06:31:53;18.50;99.90
15483;DHT22;7843;50.330;7.312;2023-07-24T06:34:20;18.60;99.90
15483;DHT22;7843;50.330;7.312;2023-07-24T06:36:47;18.60;99.90
15483;DHT22;7843;50.330;7.312;2023-07-24T06:39:14;18.80;99.40
15483;DHT22;7843;50.330;7.312;2023-07-24T06:41:40;18.90;99.50
15483;DHT22;7843;50.330;7.312;2023-07-24T06:44:07;19.00;99.90
15483;DHT22;7843;50.330;7.312;2023-07-24T06:46:34;19.10;99.90
15483;DHT22;7843;50.330;7.312;2023-07-24T06:49:00;19.20;99.90
15483;DHT22;7843;50.330;7.312;2023-07-24T06:51:29;19.30;99.90
15483;DHT22;7843;50.330;7.312;2023-07-24T06:53:56;19.40;99.90
15483;DHT22;7843;50.330;7.312;2023-07-24T06:56:22;19.40;99.50
15483;DHT22;7843;50.330;7.312;2023-07-24T06:58:49;19.50;99.90
15483;DHT22;7843;50.330;7.312;2023-07-24T07:01:16;19.50;99.90
15483;DHT22;7843;50.330;7.312;2023-07-24T07:03:43;19.50;99.70
15483;DHT22;7843;50.330;7.312;2023-07-24T07:06:09;19.60;99.00
15483;DHT22;7843;50.330;7.312;2023-07-24T07:08:53;19.60;98.60
15483;DHT22;7843;50.330;7.312;2023-07-24T07:11:20;19.70;97.90
15483;DHT22;7843;50.330;7.312;2023-07-24T07:13:46;19.70;98.00
15483;DHT22;7843;50.330;7.312;2023-07-24T07:16:13;19.80;98.40
15483;DHT22;7843;50.330;7.312;2023-07-24T07:18:40;19.90;96.80
15483;DHT22;7843;50.330;7.312;2023-07-24T07:21:07;19.90;96.60
15483;DHT22;7843;50.330;7.312;2023-07-24T07:23:33;19.90;95.70
15483;DHT22;7843;50.330;7.312;2023-07-24T07:26:00;19.90;96.60
15483;DHT22;7843;50.330;7.312;2023-07-24T07:28:27;19.90;97.10
15483;DHT22;7843;50.330;7.312;2023-07-24T07:30:54;19.90;97.40
15483;DHT22;7843;50.330;7.312;2023-07-24T07:33:21;19.80;97.50
15483;DHT22;7843;50.330;7.312;2023-07-24T07:35:48;19.80;95.50
15483;DHT22;7843;50.330;7.312;2023-07-24T07:38:15;19.80;97.20
15483;DHT22;7843;50.330;7.312;2023-07-24T07:40:41;19.70;99.00
15483;DHT22;7843;50.330;7.312;2023-07-24T07:43:08;19.70;99.80
15483;DHT22;7843;50.330;7.312;2023-07-24T07:45:35;19.60;99.90
15483;DHT22;7843;50.330;7.312;2023-07-24T07:48:02;19.60;99.90
15483;DHT22;7843;50.330;7.312;2023-07-24T07:50:28;19.60;99.90
15483;DHT22;7843;50.330;7.312;2023-07-24T07:52:55;19.70;99.90
15483;DHT22;7843;50.330;7.312;2023-07-24T07:55:22;19.80;99.90
15483;DHT22;7843;50.330;7.312;2023-07-24T07:57:48;19.90;99.90
15483;DHT22;7843;50.330;7.312;2023-07-24T08:00:15;19.90;99.90
15483;DHT22;7843;50.330;7.312;2023-07-24T08:02:42;20.00;99.10
15483;DHT22;7843;50.330;7.312;2023-07-24T08:05:10;20.00;99.40
15483;DHT22;7843;50.330;7.312;2023-07-24T08:07:39;20.20;98.30
15483;DHT22;7843;50.330;7.312;2023-07-24T08:10:06;20.40;96.50
15483;DHT22;7843;50.330;7.312;2023-07-24T08:12:34;20.60;96.50
15483;DHT22;7843;50.330;7.312;2023-07-24T08:15:00;20.80;97.20
15483;DHT22;7843;50.330;7.312;2023-07-24T08:17:27;21.00;96.90
15483;DHT22;7843;50.330;7.312;2023-07-24T08:22:21;21.20;95.30
15483;DHT22;7843;50.330;7.312;2023-07-24T08:24:49;21.30;94.20
15483;DHT22;7843;50.330;7.312;2023-07-24T08:27:18;21.30;93.20
15483;DHT22;7843;50.330;7.312;2023-07-24T08:29:45;21.40;92.10
15483;DHT22;7843;50.330;7.312;2023-07-24T08:32:11;21.40;91.90
15483;DHT22;7843;50.330;7.312;2023-07-24T08:34:39;21.50;91.40
15483;DHT22;7843;50.330;7.312;2023-07-24T08:37:06;21.70;91.80
15483;DHT22;7843;50.330;7.312;2023-07-24T08:39:32;21.60;91.50
15483;DHT22;7843;50.330;7.312;2023-07-24T08:41:59;21.60;91.60
15483;DHT22;7843;50.330;7.312;2023-07-24T08:44:28;21.50;92.90
15483;DHT22;7843;50.330;7.312;2023-07-24T08:46:57;21.40;91.70
15483;DHT22;7843;50.330;7.312;2023-07-24T08:49:24;21.40;91.90
15483;DHT22;7843;50.330;7.312;2023-07-24T08:51:52;21.50;91.60
15483;DHT22;7843;50.330;7.312;2023-07-24T08:54:20;21.70;90.10
15483;DHT22;7843;50.330;7.312;2023-07-24T08:56:47;21.90;90.30
15483;DHT22;7843;50.330;7.312;2023-07-24T08:59:16;22.10;91.00
15483;DHT22;7843;50.330;7.312;2023-07-24T09:01:43;22.40;90.50
15483;DHT22;7843;50.330;7.312;2023-07-24T09:04:10;22.70;87.80
15483;DHT22;7843;50.330;7.312;2023-07-24T09:06:37;23.00;89.40
15483;DHT22;7843;50.330;7.312;2023-07-24T09:09:13;23.20;86.70
15483;DHT22;7843;50.330;7.312;2023-07-24T09:11:51;23.40;86.00
15483;DHT22;7843;50.330;7.312;2023-07-24T09:16:48;23.30;86.50
15483;DHT22;7843;50.330;7.312;2023-07-24T09:19:19;23.30;85.50
15483;DHT22;7843;50.330;7.312;2023-07-24T09:21:51;23.20;84.60
15483;DHT22;7843;50.330;7.312;2023-07-24T09:24:18;23.20;84.90
15483;DHT22;7843;50.330;7.312;2023-07-24T09:26:49;23.20;86.30
15483;DHT22;7843;50.330;7.312;2023-07-24T09:29:17;23.30;86.60
15483;DHT22;7843;50.330;7.312;2023-07-24T09:31:45;23.40;83.80
15483;DHT22;7843;50.330;7.312;2023-07-24T09:34:18;23.60;85.30
15483;DHT22;7843;50.330;7.312;2023-07-24T09:36:46;23.80;83.60
15483;DHT22;7843;50.330;7.312;2023-07-24T09:39:12;24.00;82.60
15483;DHT22;7843;50.330;7.312;2023-07-24T09:41:39;24.30;83.30
15483;DHT22;7843;50.330;7.312;2023-07-24T09:44:07;24.60;82.30
15483;DHT22;7843;50.330;7.312;2023-07-24T09:46:34;24.90;81.60
15483;DHT22;7843;50.330;7.312;2023-07-24T09:49:11;25.10;81.10
15483;DHT22;7843;50.330;7.312;2023-07-24T09:51:38;25.20;78.00
15483;DHT22;7843;50.330;7.312;2023-07-24T09:54:33;25.10;77.80
15483;DHT22;7843;50.330;7.312;2023-07-24T09:57:08;25.00;77.40
15483;DHT22;7843;50.330;7.312;2023-07-24T09:59:40;25.00;78.00
15483;DHT22;7843;50.330;7.312;2023-07-24T10:02:11;25.00;77.80
15483;DHT22;7843;50.330;7.312;2023-07-24T10:04:38;25.10;77.90
15483;DHT22;7843;50.330;7.312;2023-07-24T10:07:06;25.10;75.00
15483;DHT22;7843;50.330;7.312;2023-07-24T10:09:34;25.10;75.50
15483;DHT22;7843;50.330;7.312;2023-07-24T10:12:03;25.40;77.40
15483;DHT22;7843;50.330;7.312;2023-07-24T10:14:30;25.40;75.50
15483;DHT22;7843;50.330;7.312;2023-07-24T10:16:57;25.30;72.20
15483;DHT22;7843;50.330;7.312;2023-07-24T10:19:24;25.40;74.90
15483;DHT22;7843;50.330;7.312;2023-07-24T10:22:01;25.50;74.60
15483;DHT22;7843;50.330;7.312;2023-07-24T10:24:30;25.40;74.00
15483;DHT22;7843;50.330;7.312;2023-07-24T10:27:05;25.40;75.70
15483;DHT22;7843;50.330;7.312;2023-07-24T10:29:35;25.40;74.20
15483;DHT22;7843;50.330;7.312;2023-07-24T10:32:02;25.60;75.80
15483;DHT22;7843;50.330;7.312;2023-07-24T10:34:39;25.70;75.00
15483;DHT22;7843;50.330;7.312;2023-07-24T10:37:07;25.60;75.70
15483;DHT22;7843;50.330;7.312;2023-07-24T10:39:39;25.70;76.40
15483;DHT22;7843;50.330;7.312;2023-07-24T10:42:08;25.70;76.70
15483;DHT22;7843;50.330;7.312;2023-07-24T10:44:36;25.60;74.10
15483;DHT22;7843;50.330;7.312;2023-07-24T10:47:03;25.60;74.70
15483;DHT22;7843;50.330;7.312;2023-07-24T10:49:30;25.60;75.30
15483;DHT22;7843;50.330;7.312;2023-07-24T10:51:57;25.70;72.50
15483;DHT22;7843;50.330;7.312;2023-07-24T10:54:24;26.00;74.30
15483;DHT22;7843;50.330;7.312;2023-07-24T10:56:58;26.00;73.20
15483;DHT22;7843;50.330;7.312;2023-07-24T10:59:38;25.90;72.50
15483;DHT22;7843;50.330;7.312;2023-07-24T11:02:07;25.80;71.30
15483;DHT22;7843;50.330;7.312;2023-07-24T11:04:34;25.70;72.10
15483;DHT22;7843;50.330;7.312;2023-07-24T11:07:01;25.50;70.90
15483;DHT22;7843;50.330;7.312;2023-07-24T11:09:35;25.40;71.70
15483;DHT22;7843;50.330;7.312;2023-07-24T11:12:13;25.80;72.40
15483;DHT22;7843;50.330;7.312;2023-07-24T11:17:14;26.70;72.40
15483;DHT22;7843;50.330;7.312;2023-07-24T11:19:40;26.80;70.60
15483;DHT22;7843;50.330;7.312;2023-07-24T11:22:07;26.80;69.80
15483;DHT22;7843;50.330;7.312;2023-07-24T11:24:47;26.60;71.10
15483;DHT22;7843;50.330;7.312;2023-07-24T11:27:16;26.80;72.40
15483;DHT22;7843;50.330;7.312;2023-07-24T11:29:48;26.70;70.80
15483;DHT22;7843;50.330;7.312;2023-07-24T11:32:22;26.60;71.90
15483;DHT22;7843;50.330;7.312;2023-07-24T11:34:50;26.50;73.40
15483;DHT22;7843;50.330;7.312;2023-07-24T11:37:18;26.40;74.90
15483;DHT22;7843;50.330;7.312;2023-07-24T11:40:01;26.10;75.10
15483;DHT22;7843;50.330;7.312;2023-07-24T11:42:39;25.80;73.50
15483;DHT22;7843;50.330;7.312;2023-07-24T11:45:09;25.70;76.00
15483;DHT22;7843;50.330;7.312;2023-07-24T11:47:46;25.60;76.70
15483;DHT22;7843;50.330;7.312;2023-07-24T11:50:14;25.30;76.60
15483;DHT22;7843;50.330;7.312;2023-07-24T11:52:43;25.10;77.20
15483;DHT22;7843;50.330;7.312;2023-07-24T11:55:11;24.90;77.10
15483;DHT22;7843;50.330;7.312;2023-07-24T11:57:39;24.60;78.20
15483;DHT22;7843;50.330;7.312;2023-07-24T12:00:16;24.40;79.10
15483;DHT22;7843;50.330;7.312;2023-07-24T12:02:43;24.20;83.70
15483;DHT22;7843;50.330;7.312;2023-07-24T12:05:10;23.70;88.90
15483;DHT22;7843;50.330;7.312;2023-07-24T12:07:37;23.20;90.60
15483;DHT22;7843;50.330;7.312;2023-07-24T12:10:05;22.80;93.50
15483;DHT22;7843;50.330;7.312;2023-07-24T12:12:44;22.40;93.40
15483;DHT22;7843;50.330;7.312;2023-07-24T12:15:13;22.00;97.50
15483;DHT22;7843;50.330;7.312;2023-07-24T12:17:41;21.60;99.80
15483;DHT22;7843;50.330;7.312;2023-07-24T12:20:08;21.10;99.90
15483;DHT22;7843;50.330;7.312;2023-07-24T12:22:38;20.80;99.90
15483;DHT22;7843;50.330;7.312;2023-07-24T12:25:06;20.90;99.90
15483;DHT22;7843;50.330;7.312;2023-07-24T12:27:33;21.10;99.90
15483;DHT22;7843;50.330;7.312;2023-07-24T12:30:00;21.50;99.90
15483;DHT22;7843;50.330;7.312;2023-07-24T12:32:27;22.00;99.90
15483;DHT22;7843;50.330;7.312;2023-07-24T12:34:54;22.70;99.90
15483;DHT22;7843;50.330;7.312;2023-07-24T12:37:20;23.10;99.90
15483;DHT22;7843;50.330;7.312;2023-07-24T12:39:48;23.70;99.90
15483;DHT22;7843;50.330;7.312;2023-07-24T12:42:15;23.60;97.30
15483;DHT22;7843;50.330;7.312;2023-07-24T12:44:42;23.80;99.90
15483;DHT22;7843;50.330;7.312;2023-07-24T12:47:11;24.30;98.70
15483;DHT22;7843;50.330;7.312;2023-07-24T12:49:38;24.70;98.70
15483;DHT22;7843;50.330;7.312;2023-07-24T12:52:05;24.60;97.40
15483;DHT22;7843;50.330;7.312;2023-07-24T12:54:32;24.60;97.80
15483;DHT22;7843;50.330;7.312;2023-07-24T12:56:59;24.60;95.80
15483;DHT22;7843;50.330;7.312;2023-07-24T12:59:25;25.00;93.70
15483;DHT22;7843;50.330;7.312;2023-07-24T13:01:52;24.80;95.60
15483;DHT22;7843;50.330;7.312;2023-07-24T13:04:20;24.50;93.90
15483;DHT22;7843;50.330;7.312;2023-07-24T13:06:46;25.00;93.50
15483;DHT22;7843;50.330;7.312;2023-07-24T13:09:13;25.60;92.70
15483;DHT22;7843;50.330;7.312;2023-07-24T13:11:40;26.10;90.20
15483;DHT22;7843;50.330;7.312;2023-07-24T13:14:07;26.60;91.20
15483;DHT22;7843;50.330;7.312;2023-07-24T13:16:35;27.00;88.90
15483;DHT22;7843;50.330;7.312;2023-07-24T13:19:01;27.40;90.70
15483;DHT22;7843;50.330;7.312;2023-07-24T13:21:28;27.90;88.40
15483;DHT22;7843;50.330;7.312;2023-07-24T13:23:55;28.20;90.50
15483;DHT22;7843;50.330;7.312;2023-07-24T13:26:22;28.40;84.30
15483;DHT22;7843;50.330;7.312;2023-07-24T13:28:49;28.70;87.20
15483;DHT22;7843;50.330;7.312;2023-07-24T13:31:20;28.60;84.20
15483;DHT22;7843;50.330;7.312;2023-07-24T13:33:48;28.70;87.10
15483;DHT22;7843;50.330;7.312;2023-07-24T13:36:15;29.00;87.10
15483;DHT22;7843;50.330;7.312;2023-07-24T13:38:41;29.10;87.10
15483;DHT22;7843;50.330;7.312;2023-07-24T13:41:08;29.30;83.80
15483;DHT22;7843;50.330;7.312;2023-07-24T13:43:35;29.30;82.30
15483;DHT22;7843;50.330;7.312;2023-07-24T13:46:02;28.80;83.90
15483;DHT22;7843;50.330;7.312;2023-07-24T13:48:30;28.50;77.50
15483;DHT22;7843;50.330;7.312;2023-07-24T13:50:57;27.90;84.20
15483;DHT22;7843;50.330;7.312;2023-07-24T13:53:24;28.00;80.10
15483;DHT22;7843;50.330;7.312;2023-07-24T13:55:51;28.10;79.30
15483;DHT22;7843;50.330;7.312;2023-07-24T13:58:17;28.30;81.30
15483;DHT22;7843;50.330;7.312;2023-07-24T14:00:44;28.40;78.40
15483;DHT22;7843;50.330;7.312;2023-07-24T14:03:11;28.40;81.20
15483;DHT22;7843;50.330;7.312;2023-07-24T14:05:38;28.50;75.30
15483;DHT22;7843;50.330;7.312;2023-07-24T14:08:05;28.60;76.40
15483;DHT22;7843;50.330;7.312;2023-07-24T14:10:32;28.80;76.20
15483;DHT22;7843;50.330;7.312;2023-07-24T14:12:58;29.00;71.70
15483;DHT22;7843;50.330;7.312;2023-07-24T14:15:25;29.00;70.60
15483;DHT22;7843;50.330;7.312;2023-07-24T14:17:52;28.90;77.90
15483;DHT22;7843;50.330;7.312;2023-07-24T14:20:19;28.80;73.40
15483;DHT22;7843;50.330;7.312;2023-07-24T14:22:45;28.70;75.30
15483;DHT22;7843;50.330;7.312;2023-07-24T14:25:12;28.50;74.00
15483;DHT22;7843;50.330;7.312;2023-07-24T14:27:39;28.50;74.10
15483;DHT22;7843;50.330;7.312;2023-07-24T14:30:08;28.40;71.70
15483;DHT22;7843;50.330;7.312;2023-07-24T14:32:35;28.30;71.50
15483;DHT22;7843;50.330;7.312;2023-07-24T14:35:01;28.00;78.10
15483;DHT22;7843;50.330;7.312;2023-07-24T14:37:28;27.70;72.50
15483;DHT22;7843;50.330;7.312;2023-07-24T14:39:55;26.90;79.60
15483;DHT22;7843;50.330;7.312;2023-07-24T14:42:22;26.30;76.70
15483;DHT22;7843;50.330;7.312;2023-07-24T14:44:48;25.70;76.80
15483;DHT22;7843;50.330;7.312;2023-07-24T14:47:15;25.40;77.20
15483;DHT22;7843;50.330;7.312;2023-07-24T14:49:42;25.30;77.70
15483;DHT22;7843;50.330;7.312;2023-07-24T14:52:08;25.50;81.40
15483;DHT22;7843;50.330;7.312;2023-07-24T14:54:35;25.60;81.30
15483;DHT22;7843;50.330;7.312;2023-07-24T14:57:04;25.40;75.40
15483;DHT22;7843;50.330;7.312;2023-07-24T14:59:36;25.20;75.70
15483;DHT22;7843;50.330;7.312;2023-07-24T15:02:02;25.20;77.40
15483;DHT22;7843;50.330;7.312;2023-07-24T15:04:29;25.10;74.90
15483;DHT22;7843;50.330;7.312;2023-07-24T15:06:56;24.90;76.90
15483;DHT22;7843;50.330;7.312;2023-07-24T15:09:23;24.70;82.30
15483;DHT22;7843;50.330;7.312;2023-07-24T15:11:49;24.50;77.40
15483;DHT22;7843;50.330;7.312;2023-07-24T15:14:16;24.30;80.30
15483;DHT22;7843;50.330;7.312;2023-07-24T15:16:43;24.00;75.20
15483;DHT22;7843;50.330;7.312;2023-07-24T15:19:09;23.80;78.80
15483;DHT22;7843;50.330;7.312;2023-07-24T15:21:36;23.60;81.30
15483;DHT22;7843;50.330;7.312;2023-07-24T15:24:03;23.40;78.00
15483;DHT22;7843;50.330;7.312;2023-07-24T15:26:30;23.30;77.80
15483;DHT22;7843;50.330;7.312;2023-07-24T15:28:56;23.10;80.70
15483;DHT22;7843;50.330;7.312;2023-07-24T15:31:23;22.90;78.10
15483;DHT22;7843;50.330;7.312;2023-07-24T15:33:50;22.90;77.30
15483;DHT22;7843;50.330;7.312;2023-07-24T15:36:16;22.80;81.00
15483;DHT22;7843;50.330;7.312;2023-07-24T15:38:43;22.90;80.20
15483;DHT22;7843;50.330;7.312;2023-07-24T15:41:10;22.80;82.00
15483;DHT22;7843;50.330;7.312;2023-07-24T15:43:37;22.70;84.20
15483;DHT22;7843;50.330;7.312;2023-07-24T15:46:04;22.70;80.50
15483;DHT22;7843;50.330;7.312;2023-07-24T15:48:30;22.80;80.80
15483;DHT22;7843;50.330;7.312;2023-07-24T15:50:57;23.20;80.00
15483;DHT22;7843;50.330;7.312;2023-07-24T15:53:24;23.80;76.60
15483;DHT22;7843;50.330;7.312;2023-07-24T15:55:51;24.10;75.30
15483;DHT22;7843;50.330;7.312;2023-07-24T15:58:18;24.20;75.80
15483;DHT22;7843;50.330;7.312;2023-07-24T16:00:45;24.50;74.30